Terminal Aerodrome Forecast
Issued by NWS

Home | Current Version | Previous Version | Text Only | Print | Product List | Glossary On
Versions: 1 2 3 4 5 6 7 8 9 10 11 12 13 14 15 16 17 18 19 20 21 22 23
000
FTUS43 KIND 050700 AAA
TAFLAF
TAF AMD
KLAF 050714Z 0507/0606 09003KT P6SM SCT070 BKN100
      TEMPO 0509/0511 4SM BR
     FM051300 25004KT 6SM BR BKN050
     FM051800 VRB04KT P6SM VCTS BKN050CB
     FM060000 16003KT P6SM SCT050 BKN250
      AMD LTD TO CLD VIS AND WIND TIL 051300=

USA.gov is the U.S. government's official web portal to all federal, state and local government web resources and services.